<?xml version='1.0' encoding='UTF-8'?><gpx version="1.1" creator="JPX - https://github.com/jenetics/jpx" xmlns="http://www.topografix.com/GPX/1/1"><trk><trkseg><trkpt lat="45.96128545312667" lon="9.310618074002697"><ele>336.0</ele><time>2026-04-24T13:35:27Z</time></trkpt><trkpt lat="45.9613451210001" lon="9.310669362714725"><ele>336.0</ele><time>2026-04-24T13:35:29Z</time></trkpt><trkpt lat="45.96139884994983" lon="9.310718643562312"><ele>336.0</ele><time>2026-04-24T13:35:31Z</time></trkpt><trkpt lat="45.96147616212127" lon="9.310718121041484"><ele>336.0</ele><time>2026-04-24T13:35:33Z</time></trkpt><trkpt lat="45.96154184321685" lon="9.31069411775355"><ele>336.0</ele><time>2026-04-24T13:35:35Z</time></trkpt><trkpt lat="45.96162917835015" lon="9.31067420210402"><ele>336.0</ele><time>2026-04-24T13:35:39Z</time></trkpt><trkpt lat="45.96171817901436" lon="9.310673304839307"><ele>336.6666666666667</ele><time>2026-04-24T13:35:41Z</time></trkpt><trkpt lat="45.96180243982553" lon="9.310580297210246"><ele>337.3333333333333</ele><time>2026-04-24T13:35:43Z</time></trkpt><trkpt lat="45.96186452520695" lon="9.310507172983932"><ele>338.0</ele><time>2026-04-24T13:35:45Z</time></trkpt><trkpt lat="45.9619381894997" lon="9.310466443430991"><ele>338.66666666666663</ele><time>2026-04-24T13:35:47Z</time></trkpt><trkpt lat="45.962030765598016" lon="9.310503773031979"><ele>339.3333333333333</ele><time>2026-04-24T13:35:49Z</time></trkpt><trkpt lat="45.962094342363166" lon="9.310583825175469"><ele>340.0</ele><time>2026-04-24T13:35:51Z</time></trkpt><trkpt lat="45.962151675638744" lon="9.310654939376349"><ele>340.0</ele><time>2026-04-24T13:35:53Z</time></trkpt><trkpt lat="45.96222880407362" lon="9.31080101478532"><ele>340.0</ele><time>2026-04-24T13:35:55Z</time></trkpt><trkpt lat="45.96227605499186" lon="9.310890773769044"><ele>340.0</ele><time>2026-04-24T13:35:58Z</time></trkpt><trkpt lat="45.96228443133104" lon="9.31102081245473"><ele>340.0</ele><time>2026-04-24T13:36:02Z</time></trkpt><trkpt lat="45.96231600343048" lon="9.311158965251684"><ele>340.0</ele><time>2026-04-24T13:36:05Z</time></trkpt><trkpt lat="45.962354356109216" lon="9.311234251080798"><ele>340.0</ele><time>2026-04-24T13:36:08Z</time></trkpt><trkpt lat="45.962431658609106" lon="9.311354366420419"><ele>340.0</ele><time>2026-04-24T13:36:11Z</time></trkpt><trkpt lat="45.96246313446558" lon="9.31145306095012"><ele>340.0</ele><time>2026-04-24T13:36:14Z</time></trkpt><trkpt lat="45.96255189187574" lon="9.311491727100423"><ele>340.0</ele><time>2026-04-24T13:36:16Z</time></trkpt><trkpt lat="45.96272732402448" lon="9.3116647289309"><ele>345.8</ele><time>2026-04-24T13:36:17Z</time></trkpt><trkpt lat="45.962776979346906" lon="9.311762347119659"><ele>351.6</ele><time>2026-04-24T13:36:19Z</time></trkpt><trkpt lat="45.96285990523182" lon="9.311872717905436"><ele>357.4</ele><time>2026-04-24T13:36:21Z</time></trkpt><trkpt lat="45.962925611748986" lon="9.31202250699788"><ele>363.2</ele><time>2026-04-24T13:36:23Z</time></trkpt><trkpt lat="45.96297985265804" lon="9.312128634481802"><ele>369.0</ele><time>2026-04-24T13:36:25Z</time></trkpt><trkpt lat="45.963041446629035" lon="9.312256964639506"><ele>369.0</ele><time>2026-04-24T13:36:27Z</time></trkpt><trkpt lat="45.963095234066515" lon="9.312338662826622"><ele>369.0</ele><time>2026-04-24T13:36:29Z</time></trkpt><trkpt lat="45.96315923742241" lon="9.312402708660652"><ele>369.0</ele><time>2026-04-24T13:36:32Z</time></trkpt><trkpt lat="45.96317712995105" lon="9.312535370787534"><ele>369.0</ele><time>2026-04-24T13:36:34Z</time></trkpt><trkpt lat="45.96323115707618" lon="9.312591339568721"><ele>369.0</ele><time>2026-04-24T13:36:35Z</time></trkpt><trkpt lat="45.96329201651203" lon="9.31262880794836"><ele>369.0</ele><time>2026-04-24T13:36:38Z</time></trkpt><trkpt lat="45.96333743269278" lon="9.312755405729165"><ele>369.0</ele><time>2026-04-24T13:36:39Z</time></trkpt><trkpt lat="45.96340860880373" lon="9.31281690506804"><ele>369.0</ele><time>2026-04-24T13:36:41Z</time></trkpt><trkpt lat="45.96344827088366" lon="9.312957315784846"><ele>369.0</ele><time>2026-04-24T13:36:43Z</time></trkpt><trkpt lat="45.96351318075581" lon="9.313015928428134"><ele>369.0</ele><time>2026-04-24T13:36:46Z</time></trkpt><trkpt lat="45.96347932163445" lon="9.31290738543509"><ele>369.0</ele><time>2026-04-24T13:36:47Z</time></trkpt><trkpt lat="45.96343007274047" lon="9.312966299040866"><ele>369.0</ele><time>2026-04-24T13:36:51Z</time></trkpt><trkpt lat="45.96332905846316" lon="9.312942167104552"><ele>369.0</ele><time>2026-04-24T13:36:53Z</time></trkpt><trkpt lat="45.96324700743441" lon="9.31296521519393"><ele>369.0</ele><time>2026-04-24T13:36:56Z</time></trkpt><trkpt lat="45.96329616040629" lon="9.313031245901737"><ele>369.0</ele><time>2026-04-24T13:37:09Z</time></trkpt><trkpt lat="45.963371903703376" lon="9.313030145674698"><ele>369.0</ele><time>2026-04-24T13:37:11Z</time></trkpt><trkpt lat="45.96344019324023" lon="9.313053608177276"><ele>369.0</ele><time>2026-04-24T13:37:13Z</time></trkpt><trkpt lat="45.9635106779723" lon="9.313044263791022"><ele>369.0</ele><time>2026-04-24T13:37:17Z</time></trkpt><trkpt lat="45.96342717226282" lon="9.31301983428313"><ele>369.0</ele><time>2026-04-24T13:37:21Z</time></trkpt><trkpt lat="45.963353455835794" lon="9.312973283187718"><ele>369.0</ele><time>2026-04-24T13:37:23Z</time></trkpt><trkpt lat="45.96329643540142" lon="9.312900099688115"><ele>369.0</ele><time>2026-04-24T13:37:25Z</time></trkpt><trkpt lat="45.96326419864413" lon="9.31280183258771"><ele>369.0</ele><time>2026-04-24T13:37:27Z</time></trkpt><trkpt lat="45.96323140943027" lon="9.3126719687767"><ele>369.0</ele><time>2026-04-24T13:37:29Z</time></trkpt><trkpt lat="45.96319495758068" lon="9.312539626253761"><ele>369.0</ele><time>2026-04-24T13:37:31Z</time></trkpt><trkpt lat="45.96312601681894" lon="9.312433338188796"><ele>369.0</ele><time>2026-04-24T13:37:33Z</time></trkpt><trkpt lat="45.963064135326114" lon="9.312380962399038"><ele>369.0</ele><time>2026-04-24T13:37:35Z</time></trkpt><trkpt lat="45.963004028328285" lon="9.312324673577734"><ele>369.0</ele><time>2026-04-24T13:37:37Z</time></trkpt><trkpt lat="45.96293707860906" lon="9.312218588521837"><ele>369.0</ele><time>2026-04-24T13:37:40Z</time></trkpt><trkpt lat="45.96287172258702" lon="9.312129486964405"><ele>369.0</ele><time>2026-04-24T13:37:42Z</time></trkpt><trkpt lat="45.962826013476466" lon="9.311982372970768"><ele>369.0</ele><time>2026-04-24T13:37:44Z</time></trkpt><trkpt lat="45.962752273014445" lon="9.311907755950429"><ele>370.1666666666667</ele><time>2026-04-24T13:37:46Z</time></trkpt><trkpt lat="45.962693651615" lon="9.311841557118061"><ele>371.3333333333333</ele><time>2026-04-24T13:37:48Z</time></trkpt><trkpt lat="45.96262878352737" lon="9.31176017224098"><ele>372.5</ele><time>2026-04-24T13:37:50Z</time></trkpt><trkpt lat="45.962540453349625" lon="9.311677835934749"><ele>373.66666666666663</ele><time>2026-04-24T13:37:52Z</time></trkpt><trkpt lat="45.96247067770749" lon="9.31163579962713"><ele>374.8333333333333</ele><time>2026-04-24T13:37:54Z</time></trkpt><trkpt lat="45.96240957620921" lon="9.311551542465756"><ele>376.0</ele><time>2026-04-24T13:37:56Z</time></trkpt><trkpt lat="45.962345435392244" lon="9.311477907282784"><ele>370.0</ele><time>2026-04-24T13:37:58Z</time></trkpt><trkpt lat="45.9623161074218" lon="9.3113881866347"><ele>364.0</ele><time>2026-04-24T13:38:01Z</time></trkpt><trkpt lat="45.962265572223764" lon="9.311306308143754"><ele>358.0</ele><time>2026-04-24T13:38:13Z</time></trkpt><trkpt lat="45.96218835140633" lon="9.311265773448604"><ele>352.0</ele><time>2026-04-24T13:38:15Z</time></trkpt><trkpt lat="45.962108856166104" lon="9.311262167180844"><ele>346.0</ele><time>2026-04-24T13:38:17Z</time></trkpt><trkpt lat="45.96202048672175" lon="9.311284734315421"><ele>340.0</ele><time>2026-04-24T13:38:19Z</time></trkpt><trkpt lat="45.961926502673286" lon="9.311311515038062"><ele>340.0</ele><time>2026-04-24T13:38:21Z</time></trkpt><trkpt lat="45.96182686585493" lon="9.31133361681435"><ele>340.0</ele><time>2026-04-24T13:38:23Z</time></trkpt><trkpt lat="45.96175992047541" lon="9.311371019151858"><ele>340.0</ele><time>2026-04-24T13:38:25Z</time></trkpt><trkpt lat="45.96183768844871" lon="9.311429805998616"><ele>340.0</ele><time>2026-04-24T13:38:31Z</time></trkpt><trkpt lat="45.96187549581495" lon="9.311349067818805"><ele>340.0</ele><time>2026-04-24T13:39:11Z</time></trkpt><trkpt lat="45.96184459664189" lon="9.311445870798094"><ele>340.0</ele><time>2026-04-24T13:41:08Z</time></trkpt><trkpt lat="45.961778567729255" lon="9.311438510949401"><ele>339.3333333333333</ele><time>2026-04-24T13:41:10Z</time></trkpt><trkpt lat="45.96168980452507" lon="9.311360752998132"><ele>338.66666666666663</ele><time>2026-04-24T13:41:32Z</time></trkpt><trkpt lat="45.961608255894554" lon="9.311357399302223"><ele>338.0</ele><time>2026-04-24T13:42:29Z</time></trkpt><trkpt lat="45.96154755771716" lon="9.311391610308618"><ele>337.3333333333333</ele><time>2026-04-24T13:42:31Z</time></trkpt><trkpt lat="45.96149506837078" lon="9.311465953885154"><ele>336.6666666666667</ele><time>2026-04-24T13:42:34Z</time></trkpt><trkpt lat="45.96143893790106" lon="9.311577406364393"><ele>336.0</ele><time>2026-04-24T13:42:37Z</time></trkpt><trkpt lat="45.961375274644574" lon="9.31164407895597"><ele>340.42857142857144</ele><time>2026-04-24T13:42:40Z</time></trkpt><trkpt lat="45.96133774685949" lon="9.311717499380078"><ele>344.8571428571429</ele><time>2026-04-24T13:42:42Z</time></trkpt><trkpt lat="45.96128045581734" lon="9.311785623628303"><ele>349.2857142857143</ele><time>2026-04-24T13:42:44Z</time></trkpt><trkpt lat="45.96122409813862" lon="9.311844120148214"><ele>353.7142857142857</ele><time>2026-04-24T13:42:46Z</time></trkpt><trkpt lat="45.9611645087629" lon="9.311965098894886"><ele>358.14285714285717</ele><time>2026-04-24T13:42:49Z</time></trkpt><trkpt lat="45.96116044207669" lon="9.312057348374404"><ele>362.57142857142856</ele><time>2026-04-24T13:42:51Z</time></trkpt><trkpt lat="45.961195286331815" lon="9.31213740954139"><ele>367.0</ele><time>2026-04-24T13:42:53Z</time></trkpt><trkpt lat="45.9612125407912" lon="9.312259677026486"><ele>371.66666666666663</ele><time>2026-04-24T13:42:57Z</time></trkpt><trkpt lat="45.961198104683795" lon="9.312370501776444"><ele>376.3333333333333</ele><time>2026-04-24T13:42:59Z</time></trkpt><trkpt lat="45.96125267451753" lon="9.31249539013239"><ele>381.0</ele><time>2026-04-24T13:43:02Z</time></trkpt><trkpt lat="45.96129384524804" lon="9.312577167513345"><ele>385.66666666666663</ele><time>2026-04-24T13:43:05Z</time></trkpt><trkpt lat="45.96135085223596" lon="9.312668352250146"><ele>390.3333333333333</ele><time>2026-04-24T13:43:08Z</time></trkpt><trkpt lat="45.96138570141537" lon="9.312788195312695"><ele>395.0</ele><time>2026-04-24T13:43:10Z</time></trkpt><trkpt lat="45.96146900132487" lon="9.31288140741539"><ele>394.99999999999994</ele><time>2026-04-24T13:43:12Z</time></trkpt><trkpt lat="45.96152124730182" lon="9.313001987975568"><ele>395.0</ele><time>2026-04-24T13:43:14Z</time></trkpt><trkpt lat="45.961556174921796" lon="9.313101469298564"><ele>395.0</ele><time>2026-04-24T13:43:18Z</time></trkpt><trkpt lat="45.961618459202654" lon="9.31319127011425"><ele>395.0</ele><time>2026-04-24T13:43:29Z</time></trkpt><trkpt lat="45.96155922493442" lon="9.31324352547608"><ele>394.99999999999994</ele><time>2026-04-24T13:43:32Z</time></trkpt><trkpt lat="45.9614773093604" lon="9.313233436089607"><ele>395.0</ele><time>2026-04-24T13:43:37Z</time></trkpt><trkpt lat="45.96140249131372" lon="9.313160952064022"><ele>395.0</ele><time>2026-04-24T13:43:39Z</time></trkpt><trkpt lat="45.961365392528606" lon="9.313087420151009"><ele>395.0</ele><time>2026-04-24T13:43:41Z</time></trkpt><trkpt lat="45.961290165687004" lon="9.313064305774542"><ele>395.0</ele><time>2026-04-24T13:44:20Z</time></trkpt><trkpt lat="45.96127895916596" lon="9.312974089497851"><ele>395.0</ele><time>2026-04-24T13:44:24Z</time></trkpt><trkpt lat="45.96134133213954" lon="9.312998747994593"><ele>395.0</ele><time>2026-04-24T13:44:33Z</time></trkpt><trkpt lat="45.96139794571453" lon="9.313045268282586"><ele>395.0</ele><time>2026-04-24T13:44:42Z</time></trkpt><trkpt lat="45.96146310014694" lon="9.313089174644524"><ele>395.0</ele><time>2026-04-24T13:44:46Z</time></trkpt><trkpt lat="45.96152804582448" lon="9.313112736796208"><ele>395.0</ele><time>2026-04-24T13:44:52Z</time></trkpt><trkpt lat="45.961455153915416" lon="9.313151963184483"><ele>395.0</ele><time>2026-04-24T13:45:00Z</time></trkpt><trkpt lat="45.9614729339754" lon="9.31327205010109"><ele>395.0</ele><time>2026-04-24T13:45:34Z</time></trkpt><trkpt lat="45.961530869084804" lon="9.313208578352139"><ele>395.0</ele><time>2026-04-24T13:45:48Z</time></trkpt><trkpt lat="45.96146218571239" lon="9.313191518576874"><ele>395.0</ele><time>2026-04-24T13:46:06Z</time></trkpt><trkpt lat="45.96139143799382" lon="9.313144691285249"><ele>395.0</ele><time>2026-04-24T13:46:48Z</time></trkpt><trkpt lat="45.961380354432166" lon="9.313051277157092"><ele>395.0</ele><time>2026-04-24T13:46:52Z</time></trkpt><trkpt lat="45.9613821215883" lon="9.312944601922322"><ele>394.99999999999994</ele><time>2026-04-24T13:46:55Z</time></trkpt><trkpt lat="45.961322536267154" lon="9.31287456558754"><ele>395.0</ele><time>2026-04-24T13:46:58Z</time></trkpt><trkpt lat="45.9612879981186" lon="9.312796677845894"><ele>395.0</ele><time>2026-04-24T13:47:00Z</time></trkpt><trkpt lat="45.961235772651456" lon="9.312718082556147"><ele>395.0</ele><time>2026-04-24T13:47:04Z</time></trkpt><trkpt lat="45.961165461688736" lon="9.31265239436092"><ele>394.99999999999994</ele><time>2026-04-24T13:47:07Z</time></trkpt><trkpt lat="45.9611399427237" lon="9.312548520493952"><ele>395.0</ele><time>2026-04-24T13:47:10Z</time></trkpt><trkpt lat="45.961131344073955" lon="9.31241450997019"><ele>395.0</ele><time>2026-04-24T13:47:13Z</time></trkpt><trkpt lat="45.96111334644098" lon="9.3123235431194"><ele>395.0</ele><time>2026-04-24T13:47:18Z</time></trkpt><trkpt lat="45.96109713258799" lon="9.312217189446677"><ele>395.0</ele><time>2026-04-24T13:47:20Z</time></trkpt><trkpt lat="45.96108052251428" lon="9.31206794467358"><ele>395.0</ele><time>2026-04-24T13:47:22Z</time></trkpt><trkpt lat="45.96119996719732" lon="9.311943121545928"><ele>395.0</ele><time>2026-04-24T13:47:51Z</time></trkpt><trkpt lat="45.9612109530249" lon="9.311848029492063"><ele>395.0</ele><time>2026-04-24T13:47:53Z</time></trkpt><trkpt lat="45.96112899183458" lon="9.311971021327134"><ele>395.0</ele><time>2026-04-24T13:48:13Z</time></trkpt><trkpt lat="45.961105769057326" lon="9.312077861415087"><ele>395.0</ele><time>2026-04-24T13:48:16Z</time></trkpt><trkpt lat="45.96109448294161" lon="9.312178954773767"><ele>395.0</ele><time>2026-04-24T13:48:21Z</time></trkpt><trkpt lat="45.9610256923333" lon="9.312230978171307"><ele>395.0</ele><time>2026-04-24T13:48:26Z</time></trkpt><trkpt lat="45.96090433167886" lon="9.312274198129073"><ele>393.66666666666663</ele><time>2026-04-24T13:48:29Z</time></trkpt><trkpt lat="45.96084480653084" lon="9.312335902862763"><ele>392.3333333333333</ele><time>2026-04-24T13:48:31Z</time></trkpt><trkpt lat="45.96081012523157" lon="9.312418858520921"><ele>391.0</ele><time>2026-04-24T13:48:36Z</time></trkpt><trkpt lat="45.96073600733862" lon="9.31252711281325"><ele>389.66666666666663</ele><time>2026-04-24T13:48:40Z</time></trkpt><trkpt lat="45.9606473374357" lon="9.31256118033544"><ele>388.3333333333333</ele><time>2026-04-24T13:48:43Z</time></trkpt><trkpt lat="45.960573734912494" lon="9.312602958652763"><ele>387.0</ele><time>2026-04-24T13:48:46Z</time></trkpt><trkpt lat="45.96051005799536" lon="9.312643510717832"><ele>387.0</ele><time>2026-04-24T13:48:51Z</time></trkpt><trkpt lat="45.960450061572615" lon="9.312599349288844"><ele>387.0</ele><time>2026-04-24T13:49:23Z</time></trkpt></trkseg><trkseg><trkpt lat="45.96169095447441" lon="9.311186671986627"><ele>336.0</ele><time>2026-04-24T14:23:33.003Z</time></trkpt><trkpt lat="45.96165611501567" lon="9.31133690097637"><ele>336.0</ele><time>2026-04-24T14:24:02.001Z</time></trkpt><trkpt lat="45.96161906046174" lon="9.311422812807853"><ele>336.0</ele><time>2026-04-24T14:24:32Z</time></trkpt><trkpt lat="45.961584336505936" lon="9.311331336990607"><ele>336.0</ele><time>2026-04-24T14:24:47Z</time></trkpt><trkpt lat="45.961653082147386" lon="9.311334184050732"><ele>336.0</ele><time>2026-04-24T14:24:59Z</time></trkpt><trkpt lat="45.961723428527264" lon="9.311388367261092"><ele>336.0</ele><time>2026-04-24T14:25:30Z</time></trkpt><trkpt lat="45.96169119129165" lon="9.311259615039848"><ele>336.0</ele><time>2026-04-24T14:25:40Z</time></trkpt><trkpt lat="45.96168806503395" lon="9.311352339344861"><ele>336.0</ele><time>2026-04-24T14:25:47.999Z</time></trkpt><trkpt lat="45.961585481320284" lon="9.310801247055327"><ele>336.0</ele><time>2026-04-24T14:28:01Z</time></trkpt><trkpt lat="45.96162664440052" lon="9.310996796169691"><ele>336.0</ele><time>2026-04-24T14:28:02Z</time></trkpt><trkpt lat="45.961668239492646" lon="9.311190459987035"><ele>336.0</ele><time>2026-04-24T14:28:04Z</time></trkpt><trkpt lat="45.96168776952838" lon="9.311346750726429"><ele>336.0</ele><time>2026-04-24T14:28:28Z</time></trkpt><trkpt lat="45.96164485859902" lon="9.311255853362347"><ele>336.6666666666667</ele><time>2026-04-24T14:28:40Z</time></trkpt><trkpt lat="45.9617549018243" lon="9.311281093883737"><ele>337.3333333333333</ele><time>2026-04-24T14:29:30Z</time></trkpt><trkpt lat="45.961840883380624" lon="9.311312606098724"><ele>338.0</ele><time>2026-04-24T14:29:32Z</time></trkpt><trkpt lat="45.96192194119436" lon="9.311266574020204"><ele>338.66666666666663</ele><time>2026-04-24T14:29:35Z</time></trkpt><trkpt lat="45.961980428220095" lon="9.311325733002288"><ele>339.3333333333333</ele><time>2026-04-24T14:29:43Z</time></trkpt><trkpt lat="45.961989628796815" lon="9.311422214538577"><ele>340.0</ele><time>2026-04-24T14:29:45Z</time></trkpt><trkpt lat="45.96193075774467" lon="9.311501742324245"><ele>342.8333333333333</ele><time>2026-04-24T14:29:48Z</time></trkpt><trkpt lat="45.961894669815386" lon="9.311607701193774"><ele>345.66666666666663</ele><time>2026-04-24T14:29:50Z</time></trkpt><trkpt lat="45.96183673269269" lon="9.311675164387694"><ele>348.5</ele><time>2026-04-24T14:29:58Z</time></trkpt><trkpt lat="45.961889821291216" lon="9.311769916085257"><ele>351.3333333333333</ele><time>2026-04-24T14:30:41Z</time></trkpt><trkpt lat="45.96190163447902" lon="9.311869646334399"><ele>354.1666666666667</ele><time>2026-04-24T14:30:49Z</time></trkpt><trkpt lat="45.96186476754551" lon="9.311965651480707"><ele>357.0</ele><time>2026-04-24T14:30:54Z</time></trkpt><trkpt lat="45.96187915685259" lon="9.312070451511044"><ele>357.0</ele><time>2026-04-24T14:30:59Z</time></trkpt><trkpt lat="45.96183169447263" lon="9.312135796441996"><ele>357.0</ele><time>2026-04-24T14:31:07Z</time></trkpt><trkpt lat="45.961744790376116" lon="9.31203857598967"><ele>357.0</ele><time>2026-04-24T14:31:27Z</time></trkpt><trkpt lat="45.96170388786774" lon="9.312120299784898"><ele>357.0</ele><time>2026-04-24T14:31:46Z</time></trkpt><trkpt lat="45.96170429491377" lon="9.312024138868292"><ele>357.0</ele><time>2026-04-24T14:32:25Z</time></trkpt><trkpt lat="45.96178021145105" lon="9.312067160430805"><ele>357.0</ele><time>2026-04-24T14:33:02Z</time></trkpt><trkpt lat="45.961717171141316" lon="9.312064316247247"><ele>358.42857142857144</ele><time>2026-04-24T14:37:54Z</time></trkpt><trkpt lat="45.96165775031625" lon="9.312145880589748"><ele>359.8571428571429</ele><time>2026-04-24T14:40:37Z</time></trkpt><trkpt lat="45.96161008858316" lon="9.312242082981296"><ele>361.2857142857143</ele><time>2026-04-24T14:41:31Z</time></trkpt><trkpt lat="45.96156943006669" lon="9.312334793686537"><ele>362.7142857142857</ele><time>2026-04-24T14:42:07Z</time></trkpt><trkpt lat="45.96149674045583" lon="9.312334167479372"><ele>364.14285714285717</ele><time>2026-04-24T14:42:10Z</time></trkpt><trkpt lat="45.96144314532672" lon="9.31228614464496"><ele>365.57142857142856</ele><time>2026-04-24T14:42:20Z</time></trkpt><trkpt lat="45.961435897796974" lon="9.312379567905182"><ele>367.0</ele><time>2026-04-24T14:43:44Z</time></trkpt><trkpt lat="45.96138158945167" lon="9.312306194187284"><ele>371.66666666666663</ele><time>2026-04-24T14:44:35Z</time></trkpt><trkpt lat="45.961427575994136" lon="9.312390296048612"><ele>376.3333333333333</ele><time>2026-04-24T14:45:41Z</time></trkpt><trkpt lat="45.96148691016523" lon="9.312444911442807"><ele>381.0</ele><time>2026-04-24T14:45:44Z</time></trkpt><trkpt lat="45.96151194115298" lon="9.312537607563204"><ele>385.66666666666663</ele><time>2026-04-24T14:45:53Z</time></trkpt><trkpt lat="45.96156270512457" lon="9.31259675479538"><ele>390.3333333333333</ele><time>2026-04-24T14:45:57Z</time></trkpt><trkpt lat="45.961623749555514" lon="9.312687569250194"><ele>395.0</ele><time>2026-04-24T14:46:00Z</time></trkpt><trkpt lat="45.961677923356795" lon="9.31280438098094"><ele>395.0</ele><time>2026-04-24T14:46:03Z</time></trkpt><trkpt lat="45.96166316250734" lon="9.31290368557124"><ele>395.0</ele><time>2026-04-24T14:47:18Z</time></trkpt><trkpt lat="45.961673971797" lon="9.312993635587315"><ele>395.0</ele><time>2026-04-24T14:51:07Z</time></trkpt><trkpt lat="45.96165660880026" lon="9.313081760527918"><ele>395.0</ele><time>2026-04-24T14:52:39Z</time></trkpt><trkpt lat="45.96174661123016" lon="9.313098582711223"><ele>395.0</ele><time>2026-04-24T14:53:30Z</time></trkpt><trkpt lat="45.96181850440023" lon="9.31305129282537"><ele>395.0</ele><time>2026-04-24T14:53:45Z</time></trkpt><trkpt lat="45.96177338511531" lon="9.312987371055176"><ele>395.0</ele><time>2026-04-24T14:54:34Z</time></trkpt><trkpt lat="45.96172736044249" lon="9.312923848673716"><ele>394.99999999999994</ele><time>2026-04-24T14:54:41Z</time></trkpt><trkpt lat="45.961668150830725" lon="9.31288436248416"><ele>395.0</ele><time>2026-04-24T14:54:50Z</time></trkpt><trkpt lat="45.96158953412143" lon="9.312841001163969"><ele>395.0</ele><time>2026-04-24T14:56:38Z</time></trkpt><trkpt lat="45.96166137419262" lon="9.312829013703777"><ele>395.0</ele><time>2026-04-24T14:56:49Z</time></trkpt><trkpt lat="45.96173144302391" lon="9.312868584741011"><ele>394.99999999999994</ele><time>2026-04-24T14:56:52Z</time></trkpt><trkpt lat="45.9617795870471" lon="9.31299323167155"><ele>395.0</ele><time>2026-04-24T14:56:56Z</time></trkpt><trkpt lat="45.961820183507065" lon="9.313068625051665"><ele>397.3333333333333</ele><time>2026-04-24T14:56:59Z</time></trkpt><trkpt lat="45.96188736659123" lon="9.313154203472548"><ele>399.66666666666663</ele><time>2026-04-24T14:57:02Z</time></trkpt><trkpt lat="45.96193511766309" lon="9.313253795394687"><ele>402.0</ele><time>2026-04-24T14:57:06Z</time></trkpt><trkpt lat="45.96197817630487" lon="9.313341860081385"><ele>404.33333333333337</ele><time>2026-04-24T14:57:09Z</time></trkpt><trkpt lat="45.96201762662686" lon="9.313416940620325"><ele>406.6666666666667</ele><time>2026-04-24T14:57:12Z</time></trkpt><trkpt lat="45.96203947428363" lon="9.313512581425655"><ele>409.0</ele><time>2026-04-24T14:57:16Z</time></trkpt><trkpt lat="45.962042203824126" lon="9.313646585623149"><ele>409.0</ele><time>2026-04-24T14:57:20Z</time></trkpt><trkpt lat="45.96202679948059" lon="9.313740856913183"><ele>409.0</ele><time>2026-04-24T14:57:31Z</time></trkpt><trkpt lat="45.96203209799722" lon="9.313831895435255"><ele>409.0</ele><time>2026-04-24T14:57:34Z</time></trkpt><trkpt lat="45.96203785771073" lon="9.313930858069261"><ele>409.0</ele><time>2026-04-24T14:57:37Z</time></trkpt><trkpt lat="45.96205321877129" lon="9.314043002100455"><ele>409.0</ele><time>2026-04-24T14:57:41Z</time></trkpt><trkpt lat="45.96207634607277" lon="9.31412860366312"><ele>409.0</ele><time>2026-04-24T14:57:43Z</time></trkpt><trkpt lat="45.962109611558574" lon="9.314213411219361"><ele>409.0</ele><time>2026-04-24T14:57:46Z</time></trkpt><trkpt lat="45.962154777149365" lon="9.314301172169017"><ele>411.0</ele><time>2026-04-24T14:57:49Z</time></trkpt><trkpt lat="45.96222186610227" lon="9.314385572347145"><ele>413.0</ele><time>2026-04-24T14:58:55Z</time></trkpt><trkpt lat="45.96227897334826" lon="9.314428279653093"><ele>415.0</ele><time>2026-04-24T14:59:47Z</time></trkpt><trkpt lat="45.96233226686133" lon="9.314481862004893"><ele>417.0</ele><time>2026-04-24T14:59:52Z</time></trkpt><trkpt lat="45.96240964165841" lon="9.314502213541308"><ele>419.0</ele><time>2026-04-24T15:00:41Z</time></trkpt><trkpt lat="45.96247965203066" lon="9.314564105928689"><ele>421.0</ele><time>2026-04-24T15:01:35Z</time></trkpt><trkpt lat="45.962491009963436" lon="9.3146560897612"><ele>423.0</ele><time>2026-04-24T15:02:09Z</time></trkpt><trkpt lat="45.962533156564184" lon="9.314732257410254"><ele>430.71428571428567</ele><time>2026-04-24T15:03:00Z</time></trkpt><trkpt lat="45.96257430901882" lon="9.31481631550357"><ele>438.42857142857144</ele><time>2026-04-24T15:03:23Z</time></trkpt><trkpt lat="45.96263614690683" lon="9.314872794653079"><ele>446.1428571428571</ele><time>2026-04-24T15:03:28Z</time></trkpt><trkpt lat="45.96269231299411" lon="9.314918914463165"><ele>453.85714285714283</ele><time>2026-04-24T15:03:34Z</time></trkpt><trkpt lat="45.96276088441185" lon="9.314938637649464"><ele>461.57142857142856</ele><time>2026-04-24T15:03:41Z</time></trkpt><trkpt lat="45.962824582304" lon="9.314942963384542"><ele>469.2857142857143</ele><time>2026-04-24T15:03:48Z</time></trkpt><trkpt lat="45.96288783585306" lon="9.314939979735172"><ele>477.0</ele><time>2026-04-24T15:03:56Z</time></trkpt><trkpt lat="45.96294762280084" lon="9.31497101018692"><ele>477.0</ele><time>2026-04-24T15:04:03Z</time></trkpt><trkpt lat="45.96301379861721" lon="9.314979771430902"><ele>476.99999999999994</ele><time>2026-04-24T15:04:11Z</time></trkpt><trkpt lat="45.96308013316784" lon="9.314952274259634"><ele>477.0</ele><time>2026-04-24T15:04:36Z</time></trkpt><trkpt lat="45.96314720833292" lon="9.314939044621852"><ele>477.0</ele><time>2026-04-24T15:04:53Z</time></trkpt><trkpt lat="45.96320821646768" lon="9.314914792042496"><ele>476.99999999999994</ele><time>2026-04-24T15:04:58Z</time></trkpt><trkpt lat="45.963285131625334" lon="9.314913896412037"><ele>477.0</ele><time>2026-04-24T15:05:07Z</time></trkpt><trkpt lat="45.96336962688926" lon="9.3149404333056"><ele>477.0</ele><time>2026-04-24T15:05:12Z</time></trkpt><trkpt lat="45.96342855553433" lon="9.314982611272978"><ele>474.4285714285714</ele><time>2026-04-24T15:05:22Z</time></trkpt><trkpt lat="45.9634870251536" lon="9.315041751261198"><ele>471.8571428571428</ele><time>2026-04-24T15:05:29Z</time></trkpt><trkpt lat="45.96352568462817" lon="9.315119518448382"><ele>469.2857142857143</ele><time>2026-04-24T15:05:34Z</time></trkpt><trkpt lat="45.96358749694652" lon="9.315165969158683"><ele>466.71428571428567</ele><time>2026-04-24T15:05:43Z</time></trkpt><trkpt lat="45.963640236255316" lon="9.315235960478075"><ele>464.1428571428571</ele><time>2026-04-24T15:05:49Z</time></trkpt><trkpt lat="45.96369656179496" lon="9.315293639291319"><ele>461.57142857142856</ele><time>2026-04-24T15:05:53Z</time></trkpt><trkpt lat="45.963763885447555" lon="9.315322290504936"><ele>459.0</ele><time>2026-04-24T15:05:58Z</time></trkpt><trkpt lat="45.96382802473569" lon="9.315335284932738"><ele>459.0</ele><time>2026-04-24T15:06:04Z</time></trkpt><trkpt lat="45.96390015739395" lon="9.315354439121542"><ele>459.0</ele><time>2026-04-24T15:06:12Z</time></trkpt><trkpt lat="45.96385002259894" lon="9.315413157542555"><ele>459.0</ele><time>2026-04-24T15:06:43Z</time></trkpt><trkpt lat="45.96377272533394" lon="9.315353704647363"><ele>459.0</ele><time>2026-04-24T15:06:47Z</time></trkpt><trkpt lat="45.963709032565504" lon="9.315353028497983"><ele>459.0</ele><time>2026-04-24T15:06:52Z</time></trkpt><trkpt lat="45.96364224593171" lon="9.315315484170375"><ele>459.0</ele><time>2026-04-24T15:06:58Z</time></trkpt><trkpt lat="45.96359183482623" lon="9.315228025270732"><ele>459.0</ele><time>2026-04-24T15:07:05Z</time></trkpt><trkpt lat="45.963541249734945" lon="9.3151585915048"><ele>459.0</ele><time>2026-04-24T15:07:11Z</time></trkpt><trkpt lat="45.963476365469425" lon="9.315105637549099"><ele>459.0</ele><time>2026-04-24T15:07:16Z</time></trkpt><trkpt lat="45.96343582170776" lon="9.315033375030202"><ele>459.0</ele><time>2026-04-24T15:07:20Z</time></trkpt><trkpt lat="45.96339788149962" lon="9.314959596546311"><ele>459.0</ele><time>2026-04-24T15:07:28Z</time></trkpt><trkpt lat="45.96332500953849" lon="9.314923571640508"><ele>459.0</ele><time>2026-04-24T15:07:33Z</time></trkpt><trkpt lat="45.96326920735523" lon="9.314966106445336"><ele>459.0</ele><time>2026-04-24T15:07:39Z</time></trkpt><trkpt lat="45.96319890951377" lon="9.314984911984432"><ele>459.0</ele><time>2026-04-24T15:07:48Z</time></trkpt><trkpt lat="45.96312436311242" lon="9.314989246163313"><ele>461.57142857142856</ele><time>2026-04-24T15:07:53Z</time></trkpt><trkpt lat="45.963057673261986" lon="9.314930258352904"><ele>464.1428571428571</ele><time>2026-04-24T15:07:58Z</time></trkpt><trkpt lat="45.96298630462622" lon="9.314955531469902"><ele>466.71428571428567</ele><time>2026-04-24T15:08:12Z</time></trkpt><trkpt lat="45.96291078564083" lon="9.314911391437267"><ele>469.2857142857143</ele><time>2026-04-24T15:08:31Z</time></trkpt><trkpt lat="45.96284374942622" lon="9.314912534078678"><ele>471.8571428571428</ele><time>2026-04-24T15:08:39Z</time></trkpt><trkpt lat="45.962778975278546" lon="9.314944218420882"><ele>474.4285714285714</ele><time>2026-04-24T15:08:46Z</time></trkpt><trkpt lat="45.96271499573139" lon="9.314976508998415"><ele>477.0</ele><time>2026-04-24T15:08:56Z</time></trkpt><trkpt lat="45.96264919440179" lon="9.314939556686532"><ele>477.0</ele><time>2026-04-24T15:09:06Z</time></trkpt><trkpt lat="45.96258314771938" lon="9.314884654809209"><ele>477.0</ele><time>2026-04-24T15:09:10Z</time></trkpt><trkpt lat="45.962522566238405" lon="9.314856414473674"><ele>477.0</ele><time>2026-04-24T15:09:16Z</time></trkpt><trkpt lat="45.9624743117136" lon="9.314769092574984"><ele>477.0</ele><time>2026-04-24T15:09:42Z</time></trkpt><trkpt lat="45.96242847356204" lon="9.314688980308159"><ele>477.0</ele><time>2026-04-24T15:10:07Z</time></trkpt><trkpt lat="45.96235173584061" lon="9.314596149638085"><ele>477.0</ele><time>2026-04-24T15:10:38Z</time></trkpt><trkpt lat="45.96230013796773" lon="9.314532309506376"><ele>471.1666666666667</ele><time>2026-04-24T15:10:47Z</time></trkpt><trkpt lat="45.96223976970131" lon="9.314433107003268"><ele>465.33333333333337</ele><time>2026-04-24T15:11:26Z</time></trkpt><trkpt lat="45.96220526867375" lon="9.3143543829343"><ele>459.5</ele><time>2026-04-24T15:11:41Z</time></trkpt><trkpt lat="45.96229992308473" lon="9.314381542319575"><ele>453.6666666666667</ele><time>2026-04-24T15:15:39Z</time></trkpt><trkpt lat="45.962245650261906" lon="9.314434047316313"><ele>447.83333333333337</ele><time>2026-04-24T15:16:14.999Z</time></trkpt><trkpt lat="45.962203784497966" lon="9.314359611961322"><ele>442.0</ele><time>2026-04-24T15:18:49Z</time></trkpt><trkpt lat="45.962170918479366" lon="9.314239820823426"><ele>442.00000000000006</ele><time>2026-04-24T15:18:52Z</time></trkpt><trkpt lat="45.96213993377575" lon="9.314125318983786"><ele>442.0</ele><time>2026-04-24T15:18:55Z</time></trkpt><trkpt lat="45.9621103166119" lon="9.314020287808335"><ele>442.0</ele><time>2026-04-24T15:18:59Z</time></trkpt><trkpt lat="45.96209949913476" lon="9.313925391487059"><ele>442.0</ele><time>2026-04-24T15:19:03Z</time></trkpt><trkpt lat="45.96211094904789" lon="9.313801653088591"><ele>442.00000000000006</ele><time>2026-04-24T15:19:08Z</time></trkpt><trkpt lat="45.962092785344396" lon="9.313710091181164"><ele>442.0</ele><time>2026-04-24T15:19:12Z</time></trkpt><trkpt lat="45.96208460333826" lon="9.313616512253262"><ele>437.28571428571433</ele><time>2026-04-24T15:19:16Z</time></trkpt><trkpt lat="45.96205992018585" lon="9.313521427606352"><ele>432.57142857142856</ele><time>2026-04-24T15:19:19.001Z</time></trkpt><trkpt lat="45.96202145025411" lon="9.313431203650556"><ele>427.8571428571429</ele><time>2026-04-24T15:19:23.001Z</time></trkpt><trkpt lat="45.96197877051769" lon="9.313360946696884"><ele>423.14285714285717</ele><time>2026-04-24T15:19:26.001Z</time></trkpt><trkpt lat="45.96193488559967" lon="9.313289201438465"><ele>418.42857142857144</ele><time>2026-04-24T15:19:29.001Z</time></trkpt><trkpt lat="45.961902985702146" lon="9.313203926134403"><ele>413.7142857142857</ele><time>2026-04-24T15:19:33.001Z</time></trkpt><trkpt lat="45.96185255006186" lon="9.313133462426483"><ele>409.0</ele><time>2026-04-24T15:19:37.001Z</time></trkpt><trkpt lat="45.96182692074445" lon="9.31303240963484"><ele>406.6666666666667</ele><time>2026-04-24T15:19:41.001Z</time></trkpt><trkpt lat="45.96177391981641" lon="9.312980104955193"><ele>404.33333333333337</ele><time>2026-04-24T15:19:44.001Z</time></trkpt><trkpt lat="45.96173414411676" lon="9.3128841472012"><ele>402.0</ele><time>2026-04-24T15:19:48.001Z</time></trkpt><trkpt lat="45.96166875557751" lon="9.312877510620185"><ele>399.66666666666663</ele><time>2026-04-24T15:19:53.001Z</time></trkpt><trkpt lat="45.96162489452196" lon="9.312771754094754"><ele>397.3333333333333</ele><time>2026-04-24T15:19:56.001Z</time></trkpt><trkpt lat="45.96156009189495" lon="9.312668678832676"><ele>395.0</ele><time>2026-04-24T15:19:59.001Z</time></trkpt><trkpt lat="45.96152260101508" lon="9.312573966211788"><ele>395.0</ele><time>2026-04-24T15:20:03.001Z</time></trkpt><trkpt lat="45.96148121549907" lon="9.31247475675055"><ele>395.0</ele><time>2026-04-24T15:20:07.001Z</time></trkpt><trkpt lat="45.96148548448544" lon="9.312376947787111"><ele>395.0</ele><time>2026-04-24T15:20:10.001Z</time></trkpt><trkpt lat="45.96153495941482" lon="9.312319200271174"><ele>395.0</ele><time>2026-04-24T15:20:14.001Z</time></trkpt><trkpt lat="45.96157812956683" lon="9.312252766353332"><ele>395.0</ele><time>2026-04-24T15:20:18.001Z</time></trkpt><trkpt lat="45.96161682054687" lon="9.312147145284385"><ele>395.0</ele><time>2026-04-24T15:21:29.001Z</time></trkpt><trkpt lat="45.96166103308771" lon="9.312075690045187"><ele>395.0</ele><time>2026-04-24T15:21:52.001Z</time></trkpt><trkpt lat="45.96172786683975" lon="9.312059861857243"><ele>388.66666666666663</ele><time>2026-04-24T15:22:16.001Z</time></trkpt><trkpt lat="45.96177270055378" lon="9.31212352183028"><ele>382.3333333333333</ele><time>2026-04-24T15:22:23.001Z</time></trkpt><trkpt lat="45.961830305732214" lon="9.312029491214394"><ele>376.0</ele><time>2026-04-24T15:22:30.001Z</time></trkpt><trkpt lat="45.961827192289064" lon="9.311919456687832"><ele>369.66666666666663</ele><time>2026-04-24T15:22:34.001Z</time></trkpt><trkpt lat="45.96180155490295" lon="9.311827415760515"><ele>363.3333333333333</ele><time>2026-04-24T15:22:37Z</time></trkpt><trkpt lat="45.961856388753404" lon="9.311719479191112"><ele>357.0</ele><time>2026-04-24T15:22:42Z</time></trkpt><trkpt lat="45.96190006924466" lon="9.311636628559324"><ele>357.0</ele><time>2026-04-24T15:22:45Z</time></trkpt><trkpt lat="45.96190252597179" lon="9.311537353882397"><ele>357.0</ele><time>2026-04-24T15:22:48Z</time></trkpt><trkpt lat="45.9619442910851" lon="9.311455331416843"><ele>357.0</ele><time>2026-04-24T15:23:35.001Z</time></trkpt><trkpt lat="45.96197723827546" lon="9.311377046953382"><ele>357.0</ele><time>2026-04-24T15:23:40.001Z</time></trkpt><trkpt lat="45.96193508216142" lon="9.311298423269955"><ele>357.0</ele><time>2026-04-24T15:24:03.001Z</time></trkpt><trkpt lat="45.961823643637935" lon="9.311386578256243"><ele>357.0</ele><time>2026-04-24T15:24:07.001Z</time></trkpt><trkpt lat="45.96174386688539" lon="9.311391204353235"><ele>354.1666666666667</ele><time>2026-04-24T15:24:10.001Z</time></trkpt><trkpt lat="45.96169562278792" lon="9.311304578409972"><ele>351.3333333333333</ele><time>2026-04-24T15:24:13.001Z</time></trkpt><trkpt lat="45.96175740663015" lon="9.311264322899556"><ele>348.5</ele><time>2026-04-24T15:24:15.001Z</time></trkpt><trkpt lat="45.96186055346868" lon="9.31122908749072"><ele>345.66666666666663</ele><time>2026-04-24T15:24:17.001Z</time></trkpt><trkpt lat="45.96194064479231" lon="9.3111808797556"><ele>342.8333333333333</ele><time>2026-04-24T15:24:19.001Z</time></trkpt><trkpt lat="45.96202432637969" lon="9.311180277995803"><ele>340.0</ele><time>2026-04-24T15:24:21.001Z</time></trkpt><trkpt lat="45.96211118217937" lon="9.311154370012025"><ele>340.0</ele><time>2026-04-24T15:24:23.001Z</time></trkpt><trkpt lat="45.96218082978871" lon="9.311136316144921"><ele>340.0</ele><time>2026-04-24T15:24:25.001Z</time></trkpt><trkpt lat="45.962254439123335" lon="9.311182401308752"><ele>340.0</ele><time>2026-04-24T15:24:27.001Z</time></trkpt><trkpt lat="45.96231689532214" lon="9.311221114311108"><ele>340.0</ele><time>2026-04-24T15:24:30.001Z</time></trkpt><trkpt lat="45.96233173829637" lon="9.311077692532375"><ele>340.0</ele><time>2026-04-24T15:24:44Z</time></trkpt><trkpt lat="45.96230562492975" lon="9.310946029176373"><ele>340.0</ele><time>2026-04-24T15:24:46Z</time></trkpt><trkpt lat="45.962246523728" lon="9.310845452040073"><ele>340.0</ele><time>2026-04-24T15:24:50Z</time></trkpt><trkpt lat="45.96218437377941" lon="9.310754894151376"><ele>340.0</ele><time>2026-04-24T15:24:52Z</time></trkpt><trkpt lat="45.962133763723685" lon="9.310689563241421"><ele>340.0</ele><time>2026-04-24T15:24:54Z</time></trkpt><trkpt lat="45.962073420660744" lon="9.31060247113354"><ele>340.0</ele><time>2026-04-24T15:24:57Z</time></trkpt><trkpt lat="45.962000976812305" lon="9.310518027266804"><ele>340.0</ele><time>2026-04-24T15:24:59Z</time></trkpt><trkpt lat="45.961913409531405" lon="9.310512903374423"><ele>340.0</ele><time>2026-04-24T15:25:01Z</time></trkpt><trkpt lat="45.96183907852287" lon="9.310579465781933"><ele>340.0</ele><time>2026-04-24T15:25:03Z</time></trkpt><trkpt lat="45.96178573979119" lon="9.31066122206783"><ele>340.0</ele><time>2026-04-24T15:25:05Z</time></trkpt><trkpt lat="45.96172631231429" lon="9.310709189484294"><ele>340.0</ele><time>2026-04-24T15:25:07Z</time></trkpt><trkpt lat="45.961640381858736" lon="9.310702437315149"><ele>340.0</ele><time>2026-04-24T15:25:09Z</time></trkpt><trkpt lat="45.961571361911915" lon="9.310690233562157"><ele>340.0</ele><time>2026-04-24T15:25:11Z</time></trkpt><trkpt lat="45.9614980307099" lon="9.310710853693918"><ele>340.0</ele><time>2026-04-24T15:25:14Z</time></trkpt><trkpt lat="45.96143025793821" lon="9.310766230470955"><ele>339.42857142857144</ele><time>2026-04-24T15:25:16Z</time></trkpt><trkpt lat="45.9613662693528" lon="9.310731342380913"><ele>338.85714285714283</ele><time>2026-04-24T15:25:18Z</time></trkpt><trkpt lat="45.961294883994555" lon="9.31069318090987"><ele>338.2857142857143</ele><time>2026-04-24T15:25:21Z</time></trkpt><trkpt lat="45.96123658559432" lon="9.310626993336006"><ele>337.7142857142857</ele><time>2026-04-24T15:25:24Z</time></trkpt><trkpt lat="45.96117790623138" lon="9.310558634750777"><ele>337.1428571428571</ele><time>2026-04-24T15:25:29Z</time></trkpt><trkpt lat="45.961140035072304" lon="9.310482985516586"><ele>336.57142857142856</ele><time>2026-04-24T15:25:34Z</time></trkpt><trkpt lat="45.961140406039846" lon="9.310365611223423"><ele>336.0</ele><time>2026-04-24T15:25:41Z</time></trkpt><trkpt lat="45.96116390227007" lon="9.310264336956614"><ele>332.5</ele><time>2026-04-24T15:25:44Z</time></trkpt><trkpt lat="45.961065252244914" lon="9.310273091212164"><ele>329.0</ele><time>2026-04-24T15:25:48Z</time></trkpt><trkpt lat="45.96099622228407" lon="9.310249818562262"><ele>325.5</ele><time>2026-04-24T15:25:50Z</time></trkpt><trkpt lat="45.960991922825166" lon="9.310110531927544"><ele>322.0</ele><time>2026-04-24T15:25:53.001Z</time></trkpt><trkpt lat="45.96098437655639" lon="9.310015073361816"><ele>318.5</ele><time>2026-04-24T15:25:55.001Z</time></trkpt><trkpt lat="45.96097600271229" lon="9.30989808868812"><ele>315.0</ele><time>2026-04-24T15:25:58.001Z</time></trkpt><trkpt lat="45.960949153640065" lon="9.309796111018025"><ele>315.0</ele><time>2026-04-24T15:26:02.001Z</time></trkpt><trkpt lat="45.961006881216676" lon="9.30974774590972"><ele>315.0</ele><time>2026-04-24T15:26:06.001Z</time></trkpt><trkpt lat="45.96094440432787" lon="9.30971734188768"><ele>315.0</ele><time>2026-04-24T15:26:59Z</time></trkpt><trkpt lat="45.960921678294646" lon="9.309809109706856"><ele>315.0</ele><time>2026-04-24T15:31:02Z</time></trkpt><trkpt lat="45.96094376389362" lon="9.309901130944255"><ele>315.0</ele><time>2026-04-24T15:31:14Z</time></trkpt><trkpt lat="45.96093843366627" lon="9.309992216911684"><ele>315.0</ele><time>2026-04-24T15:31:24Z</time></trkpt><trkpt lat="45.96095318906409" lon="9.310084828082116"><ele>315.0</ele><time>2026-04-24T15:31:35Z</time></trkpt><trkpt lat="45.960972192232475" lon="9.310174048081528"><ele>315.0</ele><time>2026-04-24T15:31:48Z</time></trkpt><trkpt lat="45.961014052724394" lon="9.310241900449013"><ele>315.0</ele><time>2026-04-24T15:31:59Z</time></trkpt><trkpt lat="45.96108567702735" lon="9.310278050307346"><ele>315.0</ele><time>2026-04-24T15:32:11Z</time></trkpt><trkpt lat="45.9611247033905" lon="9.310369943776776"><ele>315.0</ele><time>2026-04-24T15:32:18Z</time></trkpt><trkpt lat="45.9611423677942" lon="9.310465155374535"><ele>315.0</ele><time>2026-04-24T15:32:32Z</time></trkpt><trkpt lat="45.96115233960594" lon="9.310556501858006"><ele>315.0</ele><time>2026-04-24T15:32:41Z</time></trkpt><trkpt lat="45.96127438445215" lon="9.310515735026241"><ele>315.0</ele><time>2026-04-24T15:36:54Z</time></trkpt></trkseg></trk></gpx>